Wednesday, April 25, 2018, 1:00 AM EDT
Back to Local

KMTP, Montauk Airport

Location: Montauk, NY, United States Lat: 41.067
Local Time: 1:00 AM EDT ( 5:00 GMT) Lon: -71.917
Time Zone: US/Eastern Elev: 6 ft

Show me the last for .
Show Decoded

2018-04-24 23:54 METAR KMTP 250354Z AUTO 12008G15KT 11/06 A3023 RMK AO1 SLP235 T01060061 =
2018-04-24 22:54 METAR KMTP 250254Z AUTO 12007KT 090V160 11/06 A3026 RMK AO1 SLP245 T01110056
                 58013 =
2018-04-24 21:54 METAR KMTP 250154Z AUTO VRB04KT 12/06 A3028 RMK AO1 SLP253 T01170056 =
2018-04-24 20:54 METAR KMTP 250054Z AUTO VRB06KT 12/05 A3029 RMK AO1 SLP257 T01170050 =
2018-04-24 19:54 METAR KMTP 242354Z AUTO 14007KT 090V190 11/06 A3029 RMK AO1 SLP258 T01110061
                 10156 20111 56011 =
2018-04-24 18:54 METAR KMTP 242254Z AUTO VRB05KT 12/06 A3030 RMK AO1 SLP258 T01170061 =
2018-04-24 17:54 METAR KMTP 242154Z AUTO VRB04KT 13/05 A3031 RMK AO1 SLP264 T01330050 =
2018-04-24 16:54 METAR KMTP 242054Z AUTO VRB06KT 13/06 A3032 RMK AO1 SLP268 T01330061 56025 =
2018-04-24 15:54 METAR KMTP 241954Z AUTO VRB06KT 14/07 A3035 RMK AO1 SLP276 T01390072 =
2018-04-24 14:54 METAR KMTP 241854Z AUTO VRB06KT 14/07 A3037 RMK AO1 SLP284 T01440072 =
2018-04-24 13:54 METAR KMTP 241754Z AUTO VRB06KT 15/08 A3040 RMK AO1 SLP293 T01500078 10156 20106
                 56015 =
2018-04-24 12:54 METAR KMTP 241654Z AUTO 17006KT 15/08 A3041 RMK AO1 SLP295 T01500078 =
2018-04-24 11:54 METAR KMTP 241554Z AUTO VRB05KT 15/08 A3042 RMK AO1 SLP302 T01500078 =
2018-04-24 10:54 METAR KMTP 241454Z AUTO 16004KT 14/06 A3044 RMK AO1 SLP308 T01440056 58003 =
2018-04-24 09:54 METAR KMTP 241354Z AUTO 15004KT 14/06 A3045 RMK AO1 SLP312 T01390061 =
2018-04-24 08:54 METAR KMTP 241254Z AUTO 00000KT 12/06 A3045 RMK AO1 SLP311 T01220056 =
2018-04-24 07:54 METAR KMTP 241154Z AUTO 00000KT 11/06 A3045 RMK AO1 SLP311 T01060056 10106 20050
                 52008 =
2018-04-24 06:54 METAR KMTP 241054Z AUTO 17003KT 09/06 A3044 RMK AO1 SLP308 T00890061 =
2018-04-24 05:54 METAR KMTP 240954Z AUTO 17003KT 07/05 A3043 RMK AO1 SLP306 T00670050 =
2018-04-24 04:54 METAR KMTP 240854Z AUTO 00000KT 07/04 A3043 RMK AO1 SLP303 T00670044 58006 =
2018-04-24 03:54 METAR KMTP 240754Z AUTO 16003KT 06/04 A3044 RMK AO1 SLP306 T00610039 =
2018-04-24 02:54 METAR KMTP 240654Z AUTO 00000KT 07/04 A3044 RMK AO1 SLP307 T00720039 =
2018-04-24 01:54 METAR KMTP 240554Z AUTO 19003KT 08/04 A3044 RMK AO1 SLP309 T00780039 10089 20072
                 58010 =

Support USWX by starting your Amazon purchase here.